Time;durP1;ratioP1;P1;durP2;ratioP2;P2;SDS_P1;SDS_P2;PMS_P1;PMS_P2;Temp;Humidity;BMP_temperature;BMP_pressure;BME280_temperature;BME280_humidity;BME280_pressure;Samples;Min_cycle;Max_cycle;Signal;HPM_P1;HPM_P2
2020/12/02 00:01:30;;;;;;;;;;;22.30;38.10;;;;;;1592821;73;774;-66
2020/12/02 00:03:35;;;;;;;;;;;22.30;38.20;;;;;;1596852;73;1959;-67
2020/12/02 00:05:37;;;;;;;;;;;22.30;38.20;;;;;;1598457;73;710;-67
2020/12/02 00:07:39;;;;;;;;;;;22.30;38.20;;;;;;1599725;73;1123;-66
2020/12/02 00:09:41;;;;;;;;;;;22.30;38.30;;;;;;1604609;73;708;-67
2020/12/02 00:11:43;;;;;;;;;;;22.20;38.20;;;;;;1598945;73;737;-67
2020/12/02 00:13:46;;;;;;;;;;;22.30;38.30;;;;;;1596995;73;729;-67
2020/12/02 00:15:48;;;;;;;;;;;22.30;38.30;;;;;;1604719;73;850;-67
2020/12/02 00:17:56;;;;;;;;;;;22.30;38.40;;;;;;1599498;73;1121;-67
2020/12/02 00:19:58;;;;;;;;;;;22.40;38.40;;;;;;1611660;73;705;-68
2020/12/02 00:22:07;;;;;;;;;;;22.30;38.30;;;;;;1599968;73;775;-67
2020/12/02 00:24:09;;;;;;;;;;;22.30;38.40;;;;;;1586931;73;1926;-68
2020/12/02 00:26:11;;;;;;;;;;;22.30;38.40;;;;;;1594125;73;1096;-69
2020/12/02 00:28:13;;;;;;;;;;;22.40;38.30;;;;;;1572102;74;732;-70
2020/12/02 00:30:15;;;;;;;;;;;22.40;38.30;;;;;;1595059;73;731;-68
2020/12/02 00:32:27;;;;;;;;;;;22.40;38.30;;;;;;1592979;73;807;-70
2020/12/02 00:34:29;;;;;;;;;;;22.40;38.20;;;;;;1598691;73;761;-70
2020/12/02 00:36:31;;;;;;;;;;;22.40;38.20;;;;;;1597673;73;1068;-70
2020/12/02 00:38:33;;;;;;;;;;;22.40;38.30;;;;;;1594451;73;737;-69
2020/12/02 00:40:35;;;;;;;;;;;22.40;38.20;;;;;;1595960;73;762;-68
2020/12/02 00:42:37;;;;;;;;;;;22.40;38.30;;;;;;1599016;73;819;-69
2020/12/02 00:44:38;;;;;;;;;;;22.40;38.40;;;;;;1598010;73;1929;-70
2020/12/02 00:46:42;;;;;;;;;;;22.40;38.30;;;;;;1607337;73;1151;-69
2020/12/02 00:48:44;;;;;;;;;;;22.40;38.50;;;;;;1603774;73;703;-69
2020/12/02 00:50:46;;;;;;;;;;;22.40;38.50;;;;;;1600509;73;772;-69
2020/12/02 00:52:58;;;;;;;;;;;22.40;38.60;;;;;;1597245;73;764;-69
2020/12/02 00:55:00;;;;;;;;;;;22.40;38.60;;;;;;1594266;73;698;-69
2020/12/02 00:57:01;;;;;;;;;;;22.40;38.70;;;;;;1601165;73;1135;-69
2020/12/02 00:59:05;;;;;;;;;;;22.40;38.60;;;;;;1601256;73;877;-70
2020/12/02 01:01:08;;;;;;;;;;;22.40;38.60;;;;;;1595899;73;755;-70
2020/12/02 01:03:18;;;;;;;;;;;22.40;38.60;;;;;;1600537;73;1926;-69
2020/12/02 01:05:20;;;;;;;;;;;22.40;38.80;;;;;;1587834;73;907;-68
2020/12/02 01:07:22;;;;;;;;;;;22.40;38.70;;;;;;1604882;73;1149;-69
2020/12/02 01:09:25;;;;;;;;;;;22.40;38.70;;;;;;1598099;73;790;-69
2020/12/02 01:11:27;;;;;;;;;;;22.50;38.80;;;;;;1599294;73;713;-69
2020/12/02 01:13:31;;;;;;;;;;;22.50;38.80;;;;;;1598178;73;813;-69
2020/12/02 01:15:32;;;;;;;;;;;22.40;38.70;;;;;;1597810;73;679;-69
2020/12/02 01:17:34;;;;;;;;;;;22.50;38.70;;;;;;1593726;73;1127;-70
2020/12/02 01:19:38;;;;;;;;;;;22.50;38.60;;;;;;1599962;73;716;-69
2020/12/02 01:21:56;;;;;;;;;;;22.60;38.70;;;;;;1598046;73;792;-69
2020/12/02 01:23:59;;;;;;;;;;;22.60;38.60;;;;;;1599255;73;1921;-69
2020/12/02 01:26:01;;;;;;;;;;;22.50;38.60;;;;;;1603554;73;1090;-68
2020/12/02 01:28:04;;;;;;;;;;;22.60;38.60;;;;;;1584430;73;890;-70
2020/12/02 01:30:07;;;;;;;;;;;22.50;38.60;;;;;;1597985;73;880;-69
2020/12/02 01:32:09;;;;;;;;;;;22.60;38.80;;;;;;1598176;73;726;-69
2020/12/02 01:34:11;;;;;;;;;;;22.50;38.70;;;;;;1598737;73;712;-70
2020/12/02 01:36:12;;;;;;;;;;;22.60;38.70;;;;;;1597364;73;1190;-70
2020/12/02 01:38:16;;;;;;;;;;;22.60;38.70;;;;;;1591463;73;734;-69
2020/12/02 01:40:22;;;;;;;;;;;22.60;38.70;;;;;;1598650;73;1933;-69
2020/12/02 01:42:24;;;;;;;;;;;22.60;38.70;;;;;;1598519;73;1695;-69
2020/12/02 01:44:26;;;;;;;;;;;22.70;38.70;;;;;;1594738;73;1941;-69
2020/12/02 01:46:35;;;;;;;;;;;22.60;38.60;;;;;;1598100;73;1155;-67
2020/12/02 01:48:39;;;;;;;;;;;22.60;38.60;;;;;;1595720;73;1873;-69
2020/12/02 01:50:42;;;;;;;;;;;22.60;38.60;;;;;;1601370;73;758;-69
2020/12/02 01:53:02;;;;;;;;;;;22.60;38.60;;;;;;1602816;73;777;-71
2020/12/02 01:55:04;;;;;;;;;;;22.60;38.60;;;;;;1586057;73;760;-70
2020/12/02 01:57:08;;;;;;;;;;;22.70;38.70;;;;;;1599492;72;1133;-67
2020/12/02 01:59:20;;;;;;;;;;;22.60;38.60;;;;;;1602796;73;1047;-69
2020/12/02 02:01:24;;;;;;;;;;;22.60;38.60;;;;;;1603347;73;1617;-69
2020/12/02 02:03:26;;;;;;;;;;;22.70;38.60;;;;;;1601491;73;2095;-70
2020/12/02 02:05:36;;;;;;;;;;;22.70;38.60;;;;;;1603571;73;755;-69
2020/12/02 02:07:37;;;;;;;;;;;22.60;38.50;;;;;;1594870;73;1136;-70
2020/12/02 02:09:39;;;;;;;;;;;22.60;38.40;;;;;;1607545;73;704;-70
2020/12/02 02:11:42;;;;;;;;;;;22.70;38.60;;;;;;1589623;73;782;-70
2020/12/02 02:13:49;;;;;;;;;;;22.70;38.60;;;;;;1596327;73;730;-71
2020/12/02 02:15:51;;;;;;;;;;;22.60;38.50;;;;;;1592679;73;723;-71
2020/12/02 02:17:57;;;;;;;;;;;22.70;38.60;;;;;;1591898;73;1159;-71
2020/12/02 02:19:59;;;;;;;;;;;22.60;38.60;;;;;;1609175;73;688;-70
2020/12/02 02:22:01;;;;;;;;;;;22.70;38.60;;;;;;1602259;73;705;-70
2020/12/02 02:24:03;;;;;;;;;;;22.60;38.60;;;;;;1598117;73;1935;-70
2020/12/02 02:26:12;;;;;;;;;;;22.60;38.60;;;;;;1597331;73;1140;-71
2020/12/02 02:28:14;;;;;;;;;;;22.70;38.60;;;;;;1606584;73;1071;-71
2020/12/02 02:30:16;;;;;;;;;;;22.70;38.70;;;;;;1599213;73;709;-71
2020/12/02 02:32:22;;;;;;;;;;;22.70;38.60;;;;;;1598742;73;691;-71
2020/12/02 02:34:24;;;;;;;;;;;22.60;38.60;;;;;;1598843;73;732;-69
2020/12/02 02:36:27;;;;;;;;;;;22.60;38.60;;;;;;1603565;73;1116;-70
2020/12/02 02:38:29;;;;;;;;;;;22.70;38.80;;;;;;1598149;73;758;-68
2020/12/02 02:40:31;;;;;;;;;;;22.60;38.70;;;;;;1601431;73;750;-69
2020/12/02 02:42:46;;;;;;;;;;;22.60;38.60;;;;;;1603829;73;700;-70
2020/12/02 02:44:48;;;;;;;;;;;22.60;38.60;;;;;;1592974;73;1998;-69
2020/12/02 02:46:50;;;;;;;;;;;22.70;38.70;;;;;;1601828;73;1190;-69
2020/12/02 02:48:52;;;;;;;;;;;22.70;38.70;;;;;;1603148;73;884;-70
2020/12/02 02:50:54;;;;;;;;;;;22.70;38.80;;;;;;1600296;73;724;-70
2020/12/02 02:52:56;;;;;;;;;;;22.70;38.80;;;;;;1606731;73;732;-65
2020/12/02 02:54:57;;;;;;;;;;;22.70;38.80;;;;;;1597848;73;663;-70
2020/12/02 02:56:59;;;;;;;;;;;22.70;38.70;;;;;;1595855;73;1133;-70
2020/12/02 02:59:01;;;;;;;;;;;22.60;38.60;;;;;;1589524;73;777;-69
2020/12/02 03:01:03;;;;;;;;;;;22.70;38.70;;;;;;1593322;73;840;-69
2020/12/02 03:03:05;;;;;;;;;;;22.70;38.70;;;;;;1590641;73;927;-68
2020/12/02 03:05:07;;;;;;;;;;;22.80;38.60;;;;;;1611872;73;1943;-70
2020/12/02 03:07:11;;;;;;;;;;;22.70;38.60;;;;;;1605601;73;1148;-69
2020/12/02 03:09:13;;;;;;;;;;;22.80;38.60;;;;;;1603125;73;1170;-70
2020/12/02 03:11:15;;;;;;;;;;;22.70;38.60;;;;;;1604467;73;799;-72
2020/12/02 03:13:34;;;;;;;;;;;22.80;38.60;;;;;;1597932;73;748;-70
2020/12/02 03:15:36;;;;;;;;;;;22.80;38.60;;;;;;1585860;73;792;-69
2020/12/02 03:17:37;;;;;;;;;;;22.70;38.60;;;;;;1598710;73;1177;-69
2020/12/02 03:19:40;;;;;;;;;;;22.70;38.60;;;;;;1600210;73;821;-69
2020/12/02 03:21:42;;;;;;;;;;;22.70;38.60;;;;;;1612185;73;749;-69
2020/12/02 03:23:44;;;;;;;;;;;22.70;38.70;;;;;;1596795;73;1929;-70
2020/12/02 03:25:46;;;;;;;;;;;22.70;38.70;;;;;;1605576;73;742;-70
2020/12/02 03:27:47;;;;;;;;;;;22.70;38.70;;;;;;1603777;73;1088;-70
2020/12/02 03:29:49;;;;;;;;;;;22.70;38.80;;;;;;1598116;73;789;-69
2020/12/02 03:31:51;;;;;;;;;;;22.70;38.70;;;;;;1606770;73;701;-69
2020/12/02 03:33:53;;;;;;;;;;;22.70;38.80;;;;;;1606383;73;732;-69
2020/12/02 03:35:55;;;;;;;;;;;22.70;38.90;;;;;;1602266;73;790;-69
2020/12/02 03:37:57;;;;;;;;;;;22.70;38.70;;;;;;1600557;73;1116;-69
2020/12/02 03:39:59;;;;;;;;;;;22.70;38.80;;;;;;1606001;73;721;-70
2020/12/02 03:42:01;;;;;;;;;;;22.70;38.80;;;;;;1602537;73;664;-70
2020/12/02 03:44:02;;;;;;;;;;;22.70;38.80;;;;;;1586706;73;1941;-70
2020/12/02 03:46:05;;;;;;;;;;;22.70;38.80;;;;;;1612817;73;1142;-70
2020/12/02 03:48:07;;;;;;;;;;;22.70;38.80;;;;;;1608742;73;872;-70
2020/12/02 03:50:09;;;;;;;;;;;22.60;38.70;;;;;;1609121;73;798;-70
2020/12/02 03:52:11;;;;;;;;;;;22.60;38.80;;;;;;1598598;73;790;-69
2020/12/02 03:54:13;;;;;;;;;;;22.70;38.90;;;;;;1603216;73;689;-69
2020/12/02 03:56:15;;;;;;;;;;;22.70;39.00;;;;;;1603821;73;1101;-70
2020/12/02 03:58:17;;;;;;;;;;;22.80;38.90;;;;;;1577910;74;729;-69
2020/12/02 04:00:19;;;;;;;;;;;22.80;39.00;;;;;;1600193;73;772;-67
2020/12/02 04:02:21;;;;;;;;;;;22.80;38.90;;;;;;1601132;73;704;-70
2020/12/02 04:04:23;;;;;;;;;;;22.80;39.10;;;;;;1602321;73;1940;-71
2020/12/02 04:06:25;;;;;;;;;;;22.80;39.00;;;;;;1602146;73;1112;-72
2020/12/02 04:08:27;;;;;;;;;;;22.80;39.00;;;;;;1592590;73;722;-71
2020/12/02 04:10:29;;;;;;;;;;;22.70;39.00;;;;;;1602571;73;661;-71
2020/12/02 04:12:30;;;;;;;;;;;22.80;38.90;;;;;;1591911;73;735;-71
2020/12/02 04:14:32;;;;;;;;;;;22.70;39.00;;;;;;1597353;73;757;-71
2020/12/02 04:16:34;;;;;;;;;;;22.70;39.20;;;;;;1597428;73;1184;-71
2020/12/02 04:18:36;;;;;;;;;;;22.80;39.10;;;;;;1598325;73;731;-72
2020/12/02 04:20:38;;;;;;;;;;;22.80;39.10;;;;;;1593319;73;754;-72
2020/12/02 04:22:40;;;;;;;;;;;22.80;39.10;;;;;;1605382;73;725;-72
2020/12/02 04:24:42;;;;;;;;;;;22.80;38.90;;;;;;1603097;73;1935;-71
2020/12/02 04:26:45;;;;;;;;;;;22.80;39.00;;;;;;1600161;73;1179;-70
2020/12/02 04:28:46;;;;;;;;;;;22.80;38.90;;;;;;1602813;73;708;-72
2020/12/02 04:30:48;;;;;;;;;;;22.80;39.00;;;;;;1602419;73;728;-72
2020/12/02 04:32:50;;;;;;;;;;;22.80;39.00;;;;;;1605060;73;716;-72
2020/12/02 04:34:52;;;;;;;;;;;22.80;39.00;;;;;;1606282;73;728;-71
2020/12/02 04:36:54;;;;;;;;;;;22.90;39.10;;;;;;1602239;73;1146;-71
2020/12/02 04:38:56;;;;;;;;;;;22.90;39.10;;;;;;1595073;73;687;-72
2020/12/02 04:40:58;;;;;;;;;;;22.80;38.90;;;;;;1602089;73;698;-71
2020/12/02 04:43:10;;;;;;;;;;;22.80;38.90;;;;;;1594730;73;695;-71
2020/12/02 04:45:13;;;;;;;;;;;22.80;38.90;;;;;;1593087;73;1940;-72
2020/12/02 04:47:15;;;;;;;;;;;22.80;39.00;;;;;;1599434;73;1144;-71
2020/12/02 04:49:21;;;;;;;;;;;22.90;39.10;;;;;;1612859;73;736;-71
2020/12/02 04:51:24;;;;;;;;;;;22.80;38.90;;;;;;1611747;73;643;-68
2020/12/02 04:53:26;;;;;;;;;;;22.90;39.00;;;;;;1608472;73;796;-68
2020/12/02 04:55:28;;;;;;;;;;;22.70;38.90;;;;;;1596599;73;699;-67
2020/12/02 04:57:30;;;;;;;;;;;22.80;38.90;;;;;;1607587;73;1115;-68
2020/12/02 04:59:36;;;;;;;;;;;22.90;39.00;;;;;;1610435;73;769;-68
2020/12/02 05:01:49;;;;;;;;;;;22.80;38.90;;;;;;1592412;73;1066;-70
2020/12/02 05:04:04;;;;;;;;;;;22.90;39.10;;;;;;1598870;73;799;-70
2020/12/02 05:06:06;;;;;;;;;;;22.80;39.00;;;;;;1597560;73;1920;-69
2020/12/02 05:08:18;;;;;;;;;;;22.80;38.90;;;;;;1585621;73;670;-70
2020/12/02 05:10:20;;;;;;;;;;;22.80;38.90;;;;;;1601078;73;823;-71
2020/12/02 05:12:23;;;;;;;;;;;22.80;38.80;;;;;;1607416;73;801;-70
2020/12/02 05:14:27;;;;;;;;;;;22.80;38.80;;;;;;1587577;73;784;-70
2020/12/02 05:16:29;;;;;;;;;;;22.80;38.70;;;;;;1602363;73;1753;-70
2020/12/02 05:18:30;;;;;;;;;;;22.90;38.90;;;;;;1595886;73;741;-70
2020/12/02 05:20:32;;;;;;;;;;;22.80;38.80;;;;;;1598138;73;654;-70
2020/12/02 05:22:35;;;;;;;;;;;22.80;38.70;;;;;;1602009;73;774;-70
2020/12/02 05:24:44;;;;;;;;;;;22.80;38.70;;;;;;1608244;73;1929;-70
2020/12/02 05:26:47;;;;;;;;;;;22.80;38.60;;;;;;1599850;73;1170;-69
2020/12/02 05:28:49;;;;;;;;;;;22.90;38.70;;;;;;1604486;73;746;-69
2020/12/02 05:30:52;;;;;;;;;;;22.80;38.70;;;;;;1595107;73;743;-70
2020/12/02 05:33:14;;;;;;;;;;;22.90;38.80;;;;;;1599279;73;1795;-69
2020/12/02 05:35:15;;;;;;;;;;;22.90;38.70;;;;;;1585620;73;788;-68
2020/12/02 05:37:31;;;;;;;;;;;22.80;38.60;;;;;;1595910;73;1234;-68
2020/12/02 05:39:41;;;;;;;;;;;22.90;38.90;;;;;;1598581;73;778;-68
2020/12/02 05:41:42;;;;;;;;;;;22.80;38.70;;;;;;1598324;73;1101;-70
2020/12/02 05:43:48;;;;;;;;;;;22.80;38.70;;;;;;1583994;74;788;-70
2020/12/02 05:45:51;;;;;;;;;;;22.90;38.90;;;;;;1597527;73;1932;-70
2020/12/02 05:47:53;;;;;;;;;;;22.80;38.70;;;;;;1597991;73;1090;-70
2020/12/02 05:49:58;;;;;;;;;;;22.80;38.80;;;;;;1595940;73;725;-71
2020/12/02 05:52:01;;;;;;;;;;;22.90;38.90;;;;;;1594889;73;792;-70
2020/12/02 05:54:05;;;;;;;;;;;22.90;38.90;;;;;;1598455;73;786;-70
2020/12/02 05:56:06;;;;;;;;;;;22.80;38.70;;;;;;1592340;73;1132;-71
2020/12/02 05:58:13;;;;;;;;;;;22.80;38.70;;;;;;1594336;73;671;-69
2020/12/02 06:00:15;;;;;;;;;;;22.80;38.70;;;;;;1599484;73;1381;-69
2020/12/02 06:02:17;;;;;;;;;;;22.80;38.70;;;;;;1597870;73;716;-70
2020/12/02 06:04:19;;;;;;;;;;;22.80;38.60;;;;;;1597174;73;725;-70
2020/12/02 06:06:21;;;;;;;;;;;22.80;38.60;;;;;;1595672;73;1917;-70
2020/12/02 06:08:36;;;;;;;;;;;22.80;38.70;;;;;;1597200;73;721;-69
2020/12/02 06:10:46;;;;;;;;;;;22.80;38.70;;;;;;1520401;73;1229;-69
2020/12/02 06:12:48;;;;;;;;;;;22.80;38.70;;;;;;1599447;73;772;-70
2020/12/02 06:14:50;;;;;;;;;;;22.80;38.70;;;;;;1628603;73;768;-69
2020/12/02 06:16:52;;;;;;;;;;;22.80;38.70;;;;;;1599921;73;1243;-69
2020/12/02 06:18:54;;;;;;;;;;;22.80;38.60;;;;;;1593827;73;733;-69
2020/12/02 06:20:55;;;;;;;;;;;22.70;38.80;;;;;;1600396;73;729;-70
2020/12/02 06:22:59;;;;;;;;;;;22.80;38.60;;;;;;1599146;73;713;-71
2020/12/02 06:25:01;;;;;;;;;;;22.80;38.60;;;;;;1613517;73;1921;-69
2020/12/02 06:29:27;;;;;;;;;;;22.90;38.40;;;;;;1634740;71;1149;-60
2020/12/02 06:31:29;;;;;;;;;;;22.80;38.10;;;;;;1612871;72;682;-59
2020/12/02 06:33:31;;;;;;;;;;;22.80;38.10;;;;;;1619180;72;754;-59
2020/12/02 06:35:33;;;;;;;;;;;22.80;38.10;;;;;;1622501;72;709;-59
2020/12/02 06:37:35;;;;;;;;;;;22.80;38.00;;;;;;1622963;72;792;-57
2020/12/02 06:39:38;;;;;;;;;;;22.70;38.10;;;;;;1615200;72;1081;-59
2020/12/02 06:41:43;;;;;;;;;;;22.70;38.20;;;;;;1610388;72;761;-58
2020/12/02 06:43:49;;;;;;;;;;;22.70;38.20;;;;;;1617866;72;770;-59
2020/12/02 06:45:51;;;;;;;;;;;22.80;38.10;;;;;;1612509;72;1951;-59
2020/12/02 06:47:55;;;;;;;;;;;22.80;38.10;;;;;;1610577;72;726;-59
2020/12/02 06:50:02;;;;;;;;;;;22.80;38.10;;;;;;1611062;72;1141;-58
2020/12/02 06:52:09;;;;;;;;;;;22.80;38.10;;;;;;1613116;72;1687;-58
2020/12/02 06:54:13;;;;;;;;;;;22.70;38.10;;;;;;1612737;72;749;-57
2020/12/02 06:56:16;;;;;;;;;;;22.60;38.10;;;;;;1604681;72;2035;-57
2020/12/02 06:58:18;;;;;;;;;;;22.60;38.10;;;;;;1605983;72;815;-59
2020/12/02 07:00:22;;;;;;;;;;;22.60;38.10;;;;;;1620124;72;1152;-59
2020/12/02 07:02:28;;;;;;;;;;;22.60;38.10;;;;;;1612957;72;737;-59
2020/12/02 07:04:30;;;;;;;;;;;22.80;38.00;;;;;;1612408;72;2068;-59
2020/12/02 07:06:32;;;;;;;;;;;22.70;37.90;;;;;;1610921;72;1934;-57
2020/12/02 07:08:34;;;;;;;;;;;22.60;37.80;;;;;;1609735;72;820;-58
2020/12/02 07:10:36;;;;;;;;;;;22.70;38.00;;;;;;1613508;72;1126;-58
2020/12/02 07:12:38;;;;;;;;;;;22.50;37.80;;;;;;1607795;72;690;-57
2020/12/02 07:14:40;;;;;;;;;;;22.60;38.00;;;;;;1621241;72;762;-58
2020/12/02 07:16:42;;;;;;;;;;;22.60;37.80;;;;;;1603154;72;713;-58
2020/12/02 07:18:45;;;;;;;;;;;22.60;37.90;;;;;;1621880;72;731;-59
2020/12/02 07:20:48;;;;;;;;;;;22.60;37.80;;;;;;1612986;72;1156;-58
2020/12/02 07:22:54;;;;;;;;;;;22.70;37.80;;;;;;1619282;72;743;-60
2020/12/02 07:24:57;;;;;;;;;;;22.60;37.80;;;;;;1579261;74;1390;-59
2020/12/02 07:26:59;;;;;;;;;;;22.70;37.60;;;;;;1604813;72;1933;-59
2020/12/02 07:29:02;;;;;;;;;;;22.70;37.60;;;;;;1597356;72;797;-59
2020/12/02 07:31:11;;;;;;;;;;;22.70;37.40;;;;;;1615298;72;1129;-59
2020/12/02 07:33:24;;;;;;;;;;;22.70;37.40;;;;;;1620528;72;978;-60
2020/12/02 07:35:26;;;;;;;;;;;22.70;37.30;;;;;;1608273;72;715;-60
2020/12/02 07:37:27;;;;;;;;;;;22.70;37.20;;;;;;1599436;72;773;-59
2020/12/02 07:39:29;;;;;;;;;;;22.70;37.20;;;;;;1604544;72;1137;-59
2020/12/02 07:41:31;;;;;;;;;;;22.80;37.10;;;;;;1608676;72;808;-59
2020/12/02 07:43:33;;;;;;;;;;;22.70;37.10;;;;;;1598716;72;728;-59
2020/12/02 07:45:35;;;;;;;;;;;22.70;37.00;;;;;;1606882;72;1936;-59
2020/12/02 07:47:37;;;;;;;;;;;22.60;36.00;;;;;;1613145;72;780;-59
2020/12/02 07:49:39;;;;;;;;;;;22.70;36.00;;;;;;1602754;72;1124;-58
2020/12/02 07:51:43;;;;;;;;;;;22.60;36.00;;;;;;1615911;72;771;-55
2020/12/02 07:54:01;;;;;;;;;;;22.70;36.00;;;;;;1600094;72;1808;-58
2020/12/02 07:56:04;;;;;;;;;;;22.70;36.00;;;;;;1601685;72;845;-58
2020/12/02 07:58:06;;;;;;;;;;;22.60;36.00;;;;;;1603769;72;713;-58
2020/12/02 08:00:23;;;;;;;;;;;22.60;36.00;;;;;;1613079;71;1096;-57
2020/12/02 08:02:25;;;;;;;;;;;22.60;36.00;;;;;;1597272;72;1133;-57
2020/12/02 08:04:28;;;;;;;;;;;22.60;36.00;;;;;;1608922;72;710;-59
2020/12/02 08:06:31;;;;;;;;;;;22.50;36.00;;;;;;1612814;72;1930;-56
2020/12/02 08:08:33;;;;;;;;;;;22.60;36.00;;;;;;1611876;72;2105;-58
2020/12/02 08:10:35;;;;;;;;;;;22.60;36.00;;;;;;1614376;72;1145;-60
2020/12/02 08:12:37;;;;;;;;;;;22.50;36.00;;;;;;1601755;73;666;-61
2020/12/02 08:14:40;;;;;;;;;;;22.50;36.00;;;;;;1610696;72;853;-61
2020/12/02 08:16:43;;;;;;;;;;;22.60;36.00;;;;;;1593885;72;752;-58
2020/12/02 08:18:46;;;;;;;;;;;22.50;35.90;;;;;;1597064;72;730;-59
2020/12/02 08:20:48;;;;;;;;;;;22.50;35.90;;;;;;1607563;72;2261;-57
2020/12/02 08:22:50;;;;;;;;;;;22.50;35.90;;;;;;1602092;72;827;-60
2020/12/02 08:24:52;;;;;;;;;;;22.60;36.00;;;;;;1603283;72;719;-60
2020/12/02 08:26:54;;;;;;;;;;;22.50;36.00;;;;;;1607743;72;1929;-61
2020/12/02 08:28:57;;;;;;;;;;;22.50;36.00;;;;;;1599721;72;707;-59
2020/12/02 08:31:01;;;;;;;;;;;22.50;36.00;;;;;;1607578;72;2116;-57
2020/12/02 08:33:04;;;;;;;;;;;22.60;36.00;;;;;;1600752;72;1617;-59
2020/12/02 08:35:26;;;;;;;;;;;22.60;35.90;;;;;;1605193;72;749;-59
2020/12/02 08:37:35;;;;;;;;;;;22.60;36.00;;;;;;1609191;72;741;-60
2020/12/02 08:39:38;;;;;;;;;;;22.50;36.00;;;;;;1599541;72;1150;-58
2020/12/02 08:41:47;;;;;;;;;;;22.60;36.00;;;;;;1596911;72;1799;-59
2020/12/02 08:43:49;;;;;;;;;;;22.60;36.10;;;;;;1599260;72;777;-60
2020/12/02 08:45:52;;;;;;;;;;;22.60;36.00;;;;;;1596567;72;1925;-59
2020/12/02 08:47:55;;;;;;;;;;;22.60;36.00;;;;;;1600601;72;1573;-60
2020/12/02 08:49:57;;;;;;;;;;;22.60;36.10;;;;;;1594089;72;1126;-59
2020/12/02 08:51:58;;;;;;;;;;;22.50;36.00;;;;;;1600684;72;883;-57
2020/12/02 08:54:02;;;;;;;;;;;22.60;36.00;;;;;;1607402;72;868;-59
2020/12/02 08:56:04;;;;;;;;;;;22.50;36.00;;;;;;1606145;72;1792;-59
2020/12/02 08:58:06;;;;;;;;;;;22.50;36.00;;;;;;1601128;72;812;-59
2020/12/02 09:00:08;;;;;;;;;;;22.50;36.10;;;;;;1597730;72;1141;-60
2020/12/02 09:02:10;;;;;;;;;;;22.60;36.00;;;;;;1592179;72;786;-60
2020/12/02 09:04:12;;;;;;;;;;;22.50;36.10;;;;;;1598066;72;778;-60
2020/12/02 09:06:16;;;;;;;;;;;22.50;36.10;;;;;;1585819;72;1925;-59
2020/12/02 09:08:17;;;;;;;;;;;22.50;36.10;;;;;;1589588;72;768;-58
2020/12/02 09:10:19;;;;;;;;;;;22.60;36.10;;;;;;1593202;72;1146;-57
2020/12/02 09:12:21;;;;;;;;;;;22.50;36.10;;;;;;1604928;72;777;-55
2020/12/02 09:14:23;;;;;;;;;;;22.60;36.10;;;;;;1600245;72;731;-59
2020/12/02 09:16:26;;;;;;;;;;;22.60;36.10;;;;;;1599643;72;753;-57
2020/12/02 09:18:28;;;;;;;;;;;22.60;36.10;;;;;;1600831;72;834;-59
2020/12/02 09:20:30;;;;;;;;;;;22.50;36.10;;;;;;1610037;72;1121;-57
2020/12/02 09:22:32;;;;;;;;;;;22.60;36.10;;;;;;1604269;72;734;-56
2020/12/02 09:24:34;;;;;;;;;;;22.60;36.10;;;;;;1595929;72;803;-57
2020/12/02 09:26:36;;;;;;;;;;;22.60;36.20;;;;;;1601948;72;1932;-55
2020/12/02 09:28:38;;;;;;;;;;;22.50;36.20;;;;;;1604961;72;807;-55
2020/12/02 09:30:39;;;;;;;;;;;22.60;36.20;;;;;;1599701;72;1152;-59
2020/12/02 09:32:41;;;;;;;;;;;22.60;36.20;;;;;;1607456;72;733;-60
2020/12/02 09:34:43;;;;;;;;;;;22.70;36.30;;;;;;1600991;72;825;-59
2020/12/02 09:36:46;;;;;;;;;;;22.60;36.10;;;;;;1602920;72;728;-56
2020/12/02 09:38:48;;;;;;;;;;;22.60;36.10;;;;;;1606610;72;748;-59
2020/12/02 09:40:50;;;;;;;;;;;22.60;36.20;;;;;;1607649;72;1133;-60
2020/12/02 09:42:56;;;;;;;;;;;22.60;36.20;;;;;;1595898;72;771;-57
2020/12/02 09:44:59;;;;;;;;;;;22.50;36.20;;;;;;1597287;72;1929;-56
2020/12/02 09:47:05;;;;;;;;;;;22.50;36.20;;;;;;1606512;72;1943;-60
2020/12/02 09:49:09;;;;;;;;;;;22.60;36.20;;;;;;1597425;72;812;-58
2020/12/02 09:51:21;;;;;;;;;;;22.50;36.20;;;;;;1611170;72;761;-59
2020/12/02 09:53:27;;;;;;;;;;;22.50;36.20;;;;;;1607153;72;765;-58
2020/12/02 09:55:29;;;;;;;;;;;22.50;36.20;;;;;;1604581;72;1043;-59
2020/12/02 09:57:31;;;;;;;;;;;22.50;36.20;;;;;;1609225;72;697;-57
2020/12/02 09:59:33;;;;;;;;;;;22.50;36.30;;;;;;1609850;72;1118;-58
2020/12/02 10:01:36;;;;;;;;;;;22.60;36.20;;;;;;1612595;72;728;-56
2020/12/02 10:03:43;;;;;;;;;;;22.50;36.20;;;;;;1609058;72;812;-60
2020/12/02 10:05:52;;;;;;;;;;;22.60;36.10;;;;;;1606255;72;1988;-57
2020/12/02 10:08:04;;;;;;;;;;;22.50;36.30;;;;;;1607538;72;1952;-57
2020/12/02 10:10:11;;;;;;;;;;;22.50;36.20;;;;;;1601351;72;2461;-58
2020/12/02 10:12:16;;;;;;;;;;;22.50;36.30;;;;;;1607547;72;738;-58
2020/12/02 10:14:19;;;;;;;;;;;22.50;36.30;;;;;;1619559;72;928;-61
2020/12/02 10:16:29;;;;;;;;;;;22.50;36.20;;;;;;1610389;72;726;-60
2020/12/02 10:18:49;;;;;;;;;;;22.50;36.30;;;;;;1612073;72;774;-58
2020/12/02 10:20:53;;;;;;;;;;;22.50;36.30;;;;;;1604980;72;1165;-58
2020/12/02 10:23:13;;;;;;;;;;;22.50;36.30;;;;;;1604326;72;1846;-59
2020/12/02 10:25:33;;;;;;;;;;;22.50;36.30;;;;;;1603142;72;728;-59
2020/12/02 10:27:40;;;;;;;;;;;22.50;36.20;;;;;;1596991;72;1910;-60
2020/12/02 10:29:46;;;;;;;;;;;22.50;36.20;;;;;;1603474;72;1158;-58
2020/12/02 10:32:08;;;;;;;;;;;22.50;36.30;;;;;;1620226;72;2006;-59
2020/12/02 10:34:20;;;;;;;;;;;22.50;36.30;;;;;;1589544;72;1419;-59
2020/12/02 10:36:26;;;;;;;;;;;22.50;36.30;;;;;;1602882;72;1631;-58
2020/12/02 10:38:29;;;;;;;;;;;22.40;36.20;;;;;;1612060;72;738;-60
2020/12/02 10:40:33;;;;;;;;;;;22.50;36.30;;;;;;1606961;72;1264;-60
2020/12/02 10:42:38;;;;;;;;;;;22.50;36.30;;;;;;1599622;72;1104;-60
2020/12/02 10:44:59;;;;;;;;;;;22.50;36.30;;;;;;1598889;72;821;-60
2020/12/02 10:47:06;;;;;;;;;;;22.50;36.30;;;;;;1590031;72;1943;-62
2020/12/02 10:49:09;;;;;;;;;;;22.50;36.20;;;;;;1595855;72;1431;-60
2020/12/02 10:51:12;;;;;;;;;;;22.50;36.30;;;;;;1604066;72;1901;-60
2020/12/02 10:53:15;;;;;;;;;;;22.50;36.30;;;;;;1606021;72;807;-60
2020/12/02 10:55:18;;;;;;;;;;;22.50;36.30;;;;;;1610376;72;776;-60
2020/12/02 10:57:21;;;;;;;;;;;22.50;36.30;;;;;;1597308;72;763;-60
2020/12/02 10:59:23;;;;;;;;;;;22.40;36.20;;;;;;1600893;72;1134;-60
2020/12/02 11:01:25;;;;;;;;;;;22.50;36.30;;;;;;1599036;72;690;-60
2020/12/02 11:03:28;;;;;;;;;;;22.50;36.20;;;;;;1602262;72;717;-60
2020/12/02 11:05:30;;;;;;;;;;;22.50;36.20;;;;;;1597732;72;770;-62
2020/12/02 11:07:39;;;;;;;;;;;22.50;36.20;;;;;;1598852;72;1937;-60
2020/12/02 11:09:52;;;;;;;;;;;22.50;36.20;;;;;;1612277;72;1864;-60
2020/12/02 11:12:01;;;;;;;;;;;22.50;36.30;;;;;;1609965;72;711;-60
2020/12/02 11:14:23;;;;;;;;;;;22.50;36.20;;;;;;1609291;72;1870;-59
2020/12/02 11:16:33;;;;;;;;;;;22.40;36.10;;;;;;1612192;72;2008;-59
2020/12/02 11:18:36;;;;;;;;;;;22.40;36.10;;;;;;1599164;72;1758;-59
2020/12/02 11:20:56;;;;;;;;;;;22.50;36.30;;;;;;1610592;72;1922;-59
2020/12/02 11:23:02;;;;;;;;;;;22.50;36.20;;;;;;1624516;72;807;-61
2020/12/02 11:25:21;;;;;;;;;;;22.40;36.10;;;;;;1628089;72;771;-61
2020/12/02 11:27:23;;;;;;;;;;;22.40;36.10;;;;;;1620277;72;1925;-60
2020/12/02 11:29:25;;;;;;;;;;;22.40;36.10;;;;;;1627815;71;1159;-61
2020/12/02 11:31:31;;;;;;;;;;;22.40;36.10;;;;;;1625246;71;746;-60
2020/12/02 11:33:41;;;;;;;;;;;22.40;36.20;;;;;;1616944;72;720;-60
2020/12/02 11:35:44;;;;;;;;;;;22.40;36.20;;;;;;1607497;72;693;-56
2020/12/02 11:37:48;;;;;;;;;;;22.50;36.30;;;;;;1603230;72;1518;-61
2020/12/02 11:40:04;;;;;;;;;;;22.40;36.20;;;;;;1603364;71;1195;-59
2020/12/02 11:42:23;;;;;;;;;;;22.50;36.20;;;;;;1605352;72;816;-58
2020/12/02 11:44:29;;;;;;;;;;;22.50;36.20;;;;;;1607697;72;655;-59
2020/12/02 11:46:31;;;;;;;;;;;22.50;36.30;;;;;;1613835;72;1917;-56
2020/12/02 11:48:35;;;;;;;;;;;22.40;36.00;;;;;;1605712;72;591;-58
2020/12/02 11:50:38;;;;;;;;;;;22.50;36.10;;;;;;1610744;72;1144;-60
2020/12/02 11:52:56;;;;;;;;;;;22.40;36.00;;;;;;1620139;72;755;-59
2020/12/02 11:54:58;;;;;;;;;;;22.50;36.00;;;;;;1608889;72;1814;-59
2020/12/02 11:57:03;;;;;;;;;;;22.50;36.00;;;;;;1586353;74;1220;-57
2020/12/02 11:59:05;;;;;;;;;;;22.50;36.00;;;;;;1606611;72;1551;-60
2020/12/02 12:01:12;;;;;;;;;;;22.50;36.00;;;;;;1605792;72;1696;-56
2020/12/02 12:03:21;;;;;;;;;;;22.50;36.00;;;;;;1616547;72;1879;-58
2020/12/02 12:05:25;;;;;;;;;;;22.40;35.80;;;;;;1615658;72;740;-59
2020/12/02 12:07:32;;;;;;;;;;;22.50;35.90;;;;;;1612657;72;1908;-61
2020/12/02 12:09:35;;;;;;;;;;;22.50;35.90;;;;;;1613365;72;1224;-56
2020/12/02 12:11:38;;;;;;;;;;;22.40;35.80;;;;;;1601910;72;1716;-58
2020/12/02 12:13:41;;;;;;;;;;;22.40;35.70;;;;;;1619613;72;753;-56
2020/12/02 12:15:43;;;;;;;;;;;22.40;35.70;;;;;;1602998;72;705;-56
2020/12/02 12:17:46;;;;;;;;;;;22.40;35.70;;;;;;1606108;72;789;-58
2020/12/02 12:19:55;;;;;;;;;;;22.40;35.60;;;;;;1602446;72;1157;-59
2020/12/02 12:22:07;;;;;;;;;;;22.50;35.70;;;;;;1602755;72;816;-59
2020/12/02 12:24:13;;;;;;;;;;;22.40;35.50;;;;;;1601210;72;1590;-58